Time;durP1;ratioP1;P1;durP2;ratioP2;P2;SDS_P1;SDS_P2;PMS_P1;PMS_P2;Temp;Humidity;BMP_temperature;BMP_pressure;BME280_temperature;BME280_humidity;BME280_pressure;Samples;Min_cycle;Max_cycle;Signal;HPM_P1;HPM_P2
2022/11/10 00:00:15;;;;;;;6.47;4.18;;;11.00;99.90;;;;;;7594477;19;20014;-72
2022/11/10 00:04:26;;;;;;;10.75;4.60;;;11.00;99.90;;;;;;7610677;19;20042;-74
2022/11/10 00:08:01;;;;;;;6.47;3.92;;;10.90;99.90;;;;;;7607108;19;20010;-72
2022/11/10 00:11:19;;;;;;;5.45;3.30;;;10.90;99.90;;;;;;7601430;19;20010;-73
2022/11/10 00:18:16;;;;;;;5.18;3.38;;;11.00;99.90;;;;;;7615653;19;20033;-75
2022/11/10 00:21:27;;;;;;;4.40;3.30;;;11.00;99.90;;;;;;7603408;19;20006;-72
2022/11/10 00:24:50;;;;;;;4.53;3.40;;;11.00;99.90;;;;;;7605040;19;20014;-74
2022/11/10 00:28:27;;;;;;;4.82;3.25;;;11.00;99.90;;;;;;7610413;19;20018;-73
2022/11/10 00:31:40;;;;;;;8.13;4.22;;;11.00;99.90;;;;;;7611870;19;20019;-73
2022/11/10 00:35:05;;;;;;;6.72;3.47;;;11.00;99.90;;;;;;7599882;19;20018;-74
2022/11/10 00:38:41;;;;;;;5.47;3.15;;;11.00;99.90;;;;;;7588898;19;20011;-75
2022/11/10 00:42:09;;;;;;;5.18;3.67;;;11.00;99.90;;;;;;7604939;19;20019;-74
2022/11/10 00:45:52;;;;;;;6.55;3.47;;;11.00;99.90;;;;;;7606994;19;20033;-74
2022/11/10 00:49:33;;;;;;;;;;;;;;;;;;;;;
2022/11/10 00:52:59;;;;;;;;;;;11.00;99.90;;;;;;7610262;19;20033;-73
2022/11/10 00:56:07;;;;;;;5.35;3.55;;;10.90;99.90;;;;;;7606784;19;19926;-73
2022/11/10 00:59:18;;;;;;;4.40;3.15;;;10.90;99.90;;;;;;7603740;19;20018;-73
2022/11/10 01:02:33;;;;;;;4.82;3.25;;;10.90;99.90;;;;;;7606697;19;20019;-74
2022/11/10 01:09:40;;;;;;;7.05;3.55;;;10.90;99.90;;;;;;7610978;19;20460;-75
2022/11/10 01:12:54;;;;;;;4.18;3.50;;;10.90;99.90;;;;;;7616008;19;20014;-74
2022/11/10 01:16:54;;;;;;;6.53;2.95;;;10.90;99.90;;;;;;7612621;19;20395;-74
2022/11/10 01:19:55;;;;;;;3.60;2.70;;;10.90;99.90;;;;;;7613175;19;20061;-74
2022/11/10 01:23:10;;;;;;;3.35;2.58;;;10.90;99.90;;;;;;7609378;19;20021;-73
2022/11/10 01:26:09;;;;;;;4.25;3.05;;;10.90;99.90;;;;;;7614659;19;20027;-74
2022/11/10 01:29:00;;;;;;;6.22;2.80;;;10.90;99.90;;;;;;7613209;19;20010;-73
2022/11/10 01:31:52;;;;;;;2.03;1.75;;;10.90;99.90;;;;;;7618547;19;21340;-72
2022/11/10 01:34:46;;;;;;;3.85;2.13;;;10.90;99.90;;;;;;7608512;19;20014;-72
2022/11/10 01:37:47;;;;;;;;;;;10.90;99.90;;;;;;7603128;19;20050;-74
2022/11/10 01:40:38;;;;;;;6.00;2.00;;;10.90;99.90;;;;;;7614211;19;19923;-74
2022/11/10 01:43:30;;;;;;;4.47;2.45;;;10.90;99.90;;;;;;7612502;19;20026;-72
2022/11/10 01:46:20;;;;;;;3.50;2.00;;;10.90;99.90;;;;;;7611322;19;20018;-72
2022/11/10 01:49:15;;;;;;;3.08;2.10;;;10.90;99.90;;;;;;7601377;19;20010;-73
2022/11/10 01:52:12;;;;;;;2.28;1.90;;;10.90;99.90;;;;;;7591858;19;20027;-74
2022/11/10 01:55:03;;;;;;;3.13;1.80;;;10.90;99.90;;;;;;7597632;19;20018;-74
2022/11/10 01:57:54;;;;;;;3.15;2.00;;;10.90;99.90;;;;;;7593885;19;20010;-73
2022/11/10 02:00:45;;;;;;;4.80;2.20;;;10.90;99.90;;;;;;7605574;19;20039;-74
2022/11/10 02:03:43;;;;;;;2.60;1.67;;;10.90;99.90;;;;;;7589065;19;20015;-73
2022/11/10 02:06:38;;;;;;;4.72;2.90;;;10.90;99.90;;;;;;7609476;19;20019;-73
2022/11/10 02:09:28;;;;;;;8.68;3.60;;;10.90;99.90;;;;;;7581983;19;20590;-74
2022/11/10 02:12:35;;;;;;;3.97;2.20;;;10.90;99.90;;;;;;7605616;19;20036;-74
2022/11/10 02:15:28;;;;;;;4.38;2.45;;;10.90;99.90;;;;;;7607450;19;20123;-74
2022/11/10 02:18:19;;;;;;;3.30;2.35;;;10.80;99.90;;;;;;7607640;19;20052;-74
2022/11/10 02:21:09;;;;;;;3.80;2.70;;;10.90;99.90;;;;;;7610760;19;20363;-73
2022/11/10 02:24:00;;;;;;;3.78;2.22;;;10.80;99.90;;;;;;7606572;19;21850;-74
2022/11/10 02:26:55;;;;;;;5.03;2.97;;;10.80;99.90;;;;;;7601645;19;20007;-75
2022/11/10 02:29:45;;;;;;;5.32;2.78;;;10.90;99.90;;;;;;7593243;19;20020;-73
2022/11/10 02:32:36;;;;;;;6.93;3.05;;;10.80;99.90;;;;;;7611994;19;20020;-74
2022/11/10 02:35:27;;;;;;;4.15;2.70;;;10.90;99.90;;;;;;7604886;19;20043;-74
2022/11/10 02:38:18;;;;;;;5.20;2.80;;;10.80;99.90;;;;;;7607565;19;21355;-74
2022/11/10 02:41:09;;;;;;;4.38;2.58;;;10.80;99.90;;;;;;7609721;19;20362;-74
2022/11/10 02:44:00;;;;;;;2.97;2.00;;;10.80;99.90;;;;;;7595028;19;20014;-74
2022/11/10 02:46:51;;;;;;;4.85;2.67;;;10.80;99.90;;;;;;7601624;19;20018;-74
2022/11/10 02:49:43;;;;;;;2.95;1.77;;;10.80;99.90;;;;;;7617374;19;20010;-74
2022/11/10 02:52:34;;;;;;;5.15;2.00;;;10.80;99.90;;;;;;7589085;19;20022;-74
2022/11/10 02:55:25;;;;;;;2.25;1.92;;;10.80;99.90;;;;;;7607069;19;20020;-73
2022/11/10 02:58:16;;;;;;;2.13;1.70;;;10.80;99.90;;;;;;7592612;19;20015;-73
2022/11/10 03:01:07;;;;;;;3.05;1.90;;;10.70;99.90;;;;;;7599737;19;20022;-74
2022/11/10 03:03:57;;;;;;;2.35;1.55;;;10.50;99.90;;;;;;7617680;19;20054;-73
2022/11/10 03:06:48;;;;;;;1.70;1.40;;;10.60;99.90;;;;;;7598978;19;20010;-73
2022/11/10 03:09:39;;;;;;;2.35;1.50;;;10.60;99.90;;;;;;7611933;19;20114;-73
2022/11/10 03:12:30;;;;;;;3.47;2.03;;;10.60;99.90;;;;;;7622938;19;20022;-73
2022/11/10 03:15:21;;;;;;;2.63;1.65;;;10.60;99.90;;;;;;7607057;19;20077;-73
2022/11/10 03:18:11;;;;;;;4.25;1.83;;;10.50;99.90;;;;;;7609475;19;20018;-73
2022/11/10 03:21:02;;;;;;;3.17;1.75;;;10.50;99.90;;;;;;7619705;19;20011;-73
2022/11/10 03:23:53;;;;;;;3.40;1.77;;;10.50;99.90;;;;;;7594694;19;24814;-73
2022/11/10 03:26:43;;;;;;;4.57;2.00;;;10.50;99.90;;;;;;7604609;19;20006;-74
2022/11/10 03:29:34;;;;;;;7.85;2.08;;;10.40;99.90;;;;;;7600429;19;20018;-73
2022/11/10 03:32:25;;;;;;;6.60;2.55;;;10.30;99.90;;;;;;7615261;19;20102;-73
2022/11/10 03:35:16;;;;;;;6.00;2.40;;;10.20;99.90;;;;;;7605828;19;20123;-74
2022/11/10 03:38:07;;;;;;;4.28;2.10;;;10.20;99.90;;;;;;7598853;19;20021;-73
2022/11/10 03:40:58;;;;;;;6.28;2.40;;;10.20;99.90;;;;;;7589009;19;20014;-73
2022/11/10 03:44:09;;;;;;;6.88;2.80;;;10.10;99.90;;;;;;7596608;19;20519;-74
2022/11/10 03:47:02;;;;;;;4.82;2.45;;;10.00;99.90;;;;;;7590961;19;21816;-73
2022/11/10 03:49:53;;;;;;;10.02;2.35;;;10.00;99.90;;;;;;7596498;19;20010;-73
2022/11/10 03:52:45;;;;;;;8.93;2.70;;;9.90;99.90;;;;;;7602830;19;20018;-73
2022/11/10 03:55:36;;;;;;;8.05;3.03;;;10.00;99.90;;;;;;7598417;19;20612;-74
2022/11/10 03:58:27;;;;;;;7.57;3.65;;;9.90;99.90;;;;;;7585397;19;20018;-73
2022/11/10 04:01:18;;;;;;;11.27;3.10;;;9.90;99.90;;;;;;7593430;19;21161;-72
2022/11/10 04:08:57;;;;;;;8.68;3.72;;;9.80;99.90;;;;;;7596215;19;20011;-73
2022/11/10 04:10:30;;;;;;;9.40;3.20;;;9.90;99.90;;;;;;7585892;19;20094;-73
2022/11/10 04:16:30;;;;;;;9.23;3.72;;;9.90;99.90;;;;;;7599469;19;20022;-72
2022/11/10 04:19:21;;;;;;;9.50;3.65;;;10.00;99.90;;;;;;7607390;19;20049;-72
2022/11/10 04:23:25;;;;;;;10.63;4.25;;;9.90;99.90;;;;;;7605619;19;20018;-72
2022/11/10 04:25:22;;;;;;;12.18;4.05;;;9.90;99.90;;;;;;7602398;19;20577;-72
2022/11/10 04:28:13;;;;;;;14.88;4.07;;;9.90;99.90;;;;;;7602008;19;20485;-73
2022/11/10 04:31:04;;;;;;;9.38;3.72;;;9.90;99.90;;;;;;7592331;19;20023;-72
2022/11/10 04:33:56;;;;;;;9.40;4.30;;;9.90;99.90;;;;;;7606943;19;20354;-71
2022/11/10 04:36:46;;;;;;;10.70;3.78;;;10.00;99.90;;;;;;7586317;19;20895;-72
2022/11/10 04:39:37;;;;;;;14.93;4.28;;;10.00;99.90;;;;;;7616736;19;20362;-72
2022/11/10 04:42:27;;;;;;;9.95;4.00;;;10.00;99.90;;;;;;7608766;19;20018;-71
2022/11/10 04:45:18;;;;;;;7.45;3.83;;;10.00;99.90;;;;;;7606504;19;20030;-72
2022/11/10 04:48:09;;;;;;;11.23;3.95;;;10.00;99.90;;;;;;7602574;19;20018;-73
2022/11/10 04:51:05;;;;;;;9.65;4.47;;;10.00;99.90;;;;;;7613909;19;20018;-72
2022/11/10 04:53:55;;;;;;;14.07;4.28;;;10.10;99.90;;;;;;7613923;19;20025;-72
2022/11/10 04:56:46;;;;;;;11.55;3.95;;;10.10;99.90;;;;;;7603140;19;20033;-72
2022/11/10 04:59:37;;;;;;;14.95;5.20;;;10.10;99.90;;;;;;7613766;19;20017;-72
2022/11/10 05:02:27;;;;;;;14.60;5.93;;;10.00;99.90;;;;;;7610010;19;20014;-72
2022/11/10 05:05:18;;;;;;;14.63;5.72;;;9.80;99.90;;;;;;7605307;19;20106;-73
2022/11/10 05:08:09;;;;;;;33.58;13.88;;;9.80;99.90;;;;;;7607941;19;20028;-73
2022/11/10 05:11:00;;;;;;;64.93;27.20;;;9.80;99.90;;;;;;7609377;19;20447;-73
2022/11/10 05:13:50;;;;;;;43.28;20.33;;;9.80;99.90;;;;;;7614041;19;20041;-73
2022/11/10 05:16:40;;;;;;;42.80;18.50;;;9.80;99.90;;;;;;7592043;19;20260;-72
2022/11/10 05:19:31;;;;;;;50.00;24.45;;;9.80;99.90;;;;;;7607106;19;20022;-72
2022/11/10 05:22:21;;;;;;;37.47;19.00;;;9.80;99.90;;;;;;7604053;19;20014;-72
2022/11/10 05:25:12;;;;;;;14.52;7.07;;;9.90;99.90;;;;;;7611760;19;20308;-71
2022/11/10 05:28:04;;;;;;;11.52;4.80;;;9.90;99.90;;;;;;7605706;19;20018;-72
2022/11/10 05:30:55;;;;;;;11.70;4.60;;;9.90;99.90;;;;;;7600835;19;20021;-73
2022/11/10 05:33:46;;;;;;;11.02;4.20;;;9.90;99.90;;;;;;7593968;19;20056;-71
2022/11/10 05:36:37;;;;;;;8.40;3.97;;;9.90;99.90;;;;;;7600139;19;20993;-72
2022/11/10 05:39:27;;;;;;;10.05;4.10;;;9.90;99.90;;;;;;7598963;19;20027;-72
2022/11/10 05:42:18;;;;;;;10.35;4.55;;;9.90;99.90;;;;;;7594355;19;20014;-72
2022/11/10 05:45:09;;;;;;;12.05;4.72;;;9.90;99.90;;;;;;7576739;19;20014;-72
2022/11/10 05:47:59;;;;;;;9.63;4.30;;;9.80;99.90;;;;;;7586359;19;20022;-73
2022/11/10 05:50:50;;;;;;;9.80;3.90;;;9.80;99.90;;;;;;7589174;19;20022;-72
2022/11/10 05:53:41;;;;;;;11.38;4.18;;;9.90;99.90;;;;;;7598862;19;20445;-72
2022/11/10 05:56:32;;;;;;;11.65;4.65;;;9.80;99.90;;;;;;7574609;19;20027;-72
2022/11/10 05:59:23;;;;;;;7.85;4.13;;;9.80;99.90;;;;;;7576227;19;20028;-72
2022/11/10 06:02:14;;;;;;;11.55;3.95;;;9.80;99.90;;;;;;7565908;19;20524;-72
2022/11/10 06:05:06;;;;;;;15.13;5.50;;;9.80;99.90;;;;;;7568391;19;20082;-73
2022/11/10 06:07:57;;;;;;;8.40;4.43;;;9.80;99.90;;;;;;7584937;19;20018;-72
2022/11/10 06:10:47;;;;;;;11.50;6.20;;;9.70;99.90;;;;;;7559573;19;20011;-73
2022/11/10 06:13:38;;;;;;;12.23;4.95;;;9.70;99.90;;;;;;7602099;19;20053;-73
2022/11/10 06:16:29;;;;;;;9.10;5.05;;;9.70;99.90;;;;;;7584891;19;20580;-73
2022/11/10 06:19:20;;;;;;;7.93;4.13;;;9.70;99.90;;;;;;7597152;19;20037;-73
2022/11/10 06:22:11;;;;;;;9.63;4.07;;;9.80;99.90;;;;;;7593083;19;20014;-74
2022/11/10 06:25:03;;;;;;;10.20;4.85;;;9.80;99.90;;;;;;7582615;19;21009;-73
2022/11/10 06:27:54;;;;;;;12.27;5.80;;;9.70;99.90;;;;;;7583256;19;20462;-72
2022/11/10 06:30:44;;;;;;;26.70;12.60;;;9.70;99.90;;;;;;7561962;19;20053;-72
2022/11/10 06:33:35;;;;;;;21.10;14.23;;;9.70;99.90;;;;;;7580080;19;20049;-73
2022/11/10 06:36:26;;;;;;;17.92;9.70;;;9.70;99.90;;;;;;7581693;19;20011;-73
2022/11/10 06:39:16;;;;;;;17.50;8.93;;;9.80;99.90;;;;;;7591251;19;20007;-75
2022/11/10 06:42:07;;;;;;;17.90;7.05;;;9.80;99.90;;;;;;7608931;19;20011;-75
2022/11/10 06:44:58;;;;;;;19.67;7.72;;;9.70;99.90;;;;;;7612114;19;20027;-73
2022/11/10 06:47:57;;;;;;;10.77;6.18;;;9.80;99.90;;;;;;7613661;19;20014;-73
2022/11/10 06:50:47;;;;;;;8.43;5.00;;;9.80;99.90;;;;;;7609996;19;20042;-73
2022/11/10 06:53:38;;;;;;;10.98;6.40;;;9.90;99.90;;;;;;7606000;19;20455;-73
2022/11/10 06:56:29;;;;;;;9.63;6.07;;;9.80;99.90;;;;;;7606184;19;20020;-73
2022/11/10 06:59:20;;;;;;;12.10;6.13;;;9.80;99.90;;;;;;7596695;19;20019;-73
2022/11/10 07:02:14;;;;;;;9.68;6.03;;;9.90;99.90;;;;;;7599153;19;20026;-73
2022/11/10 07:05:05;;;;;;;12.75;5.35;;;9.80;99.90;;;;;;7584259;19;20022;-73
2022/11/10 07:08:00;;;;;;;17.58;7.78;;;9.80;99.90;;;;;;7608546;19;20033;-73
2022/11/10 07:10:53;;;;;;;29.83;19.70;;;9.90;99.90;;;;;;7604316;19;20011;-73
2022/11/10 07:13:43;;;;;;;34.72;23.45;;;9.90;99.90;;;;;;7604219;19;20007;-73
2022/11/10 07:16:34;;;;;;;25.83;17.13;;;10.00;99.90;;;;;;7606118;19;20022;-73
2022/11/10 07:19:24;;;;;;;24.73;14.07;;;10.00;99.90;;;;;;7602024;19;20022;-76
2022/11/10 07:22:15;;;;;;;17.63;10.77;;;9.90;99.90;;;;;;7602330;19;20034;-73
2022/11/10 07:25:06;;;;;;;13.05;9.50;;;9.90;99.90;;;;;;7606080;19;20031;-75
2022/11/10 07:27:58;;;;;;;14.98;8.27;;;9.90;99.90;;;;;;7612434;19;20010;-75
2022/11/10 07:30:49;;;;;;;19.52;9.45;;;9.80;99.90;;;;;;7609451;19;20769;-73
2022/11/10 07:33:39;;;;;;;20.65;11.45;;;9.80;99.90;;;;;;7604022;19;20006;-74
2022/11/10 07:36:30;;;;;;;19.17;11.50;;;9.80;99.90;;;;;;7612219;19;20022;-74
2022/11/10 07:39:21;;;;;;;19.65;13.40;;;9.80;99.90;;;;;;7599178;19;20034;-74
2022/11/10 07:42:12;;;;;;;26.25;13.43;;;9.80;99.90;;;;;;7587309;19;20938;-73
2022/11/10 07:45:03;;;;;;;22.80;12.02;;;9.90;99.90;;;;;;7605573;19;20018;-74
2022/11/10 07:47:58;;;;;;;23.27;13.90;;;10.10;99.90;;;;;;7569187;19;20022;-74
2022/11/10 07:50:50;;;;;;;26.90;13.65;;;10.20;99.90;;;;;;7595343;19;20018;-74
2022/11/10 07:53:40;;;;;;;34.33;16.25;;;10.30;99.90;;;;;;7613098;19;20029;-73
2022/11/10 07:56:31;;;;;;;28.50;14.38;;;10.40;99.90;;;;;;7604322;19;20750;-74
2022/11/10 07:59:22;;;;;;;17.63;9.73;;;10.40;99.90;;;;;;7598293;19;20095;-74
2022/11/10 08:02:13;;;;;;;18.75;7.18;;;10.30;99.90;;;;;;7608852;19;20025;-74
2022/11/10 08:05:03;;;;;;;16.23;8.32;;;10.20;99.90;;;;;;7595873;19;20094;-74
2022/11/10 08:07:54;;;;;;;14.27;7.03;;;10.20;99.90;;;;;;7605460;19;20030;-74
2022/11/10 08:10:45;;;;;;;10.80;6.30;;;10.30;99.90;;;;;;7597639;19;20674;-74
2022/11/10 08:13:36;;;;;;;15.73;8.40;;;10.40;99.90;;;;;;7600058;19;20014;-74
2022/11/10 08:16:27;;;;;;;18.38;8.50;;;10.30;99.90;;;;;;7593309;19;20122;-73
2022/11/10 08:19:17;;;;;;;17.00;7.38;;;10.30;99.90;;;;;;7593211;19;20037;-73
2022/11/10 08:22:08;;;;;;;25.65;11.55;;;10.30;99.90;;;;;;7594811;19;20019;-75
2022/11/10 08:24:59;;;;;;;14.85;6.43;;;10.30;99.90;;;;;;7599333;19;20010;-74
2022/11/10 08:27:59;;;;;;;9.55;4.90;;;10.60;99.90;;;;;;7610885;19;20034;-75
2022/11/10 08:30:49;;;;;;;8.80;4.88;;;10.80;99.90;;;;;;7589751;19;20475;-74
2022/11/10 08:33:40;;;;;;;11.07;5.53;;;10.80;99.90;;;;;;7591860;19;20014;-74
2022/11/10 08:36:31;;;;;;;13.25;7.15;;;10.70;99.90;;;;;;7611849;19;20018;-74
2022/11/10 08:39:22;;;;;;;11.13;5.78;;;10.60;99.90;;;;;;7607543;19;20142;-74
2022/11/10 08:42:28;;;;;;;13.07;7.65;;;10.70;99.90;;;;;;7618785;19;20018;-74
2022/11/10 08:45:18;;;;;;;11.40;5.90;;;10.80;99.90;;;;;;7615862;19;20435;-74
2022/11/10 08:48:14;;;;;;;11.65;5.80;;;10.90;99.90;;;;;;7607248;19;20018;-74
2022/11/10 08:51:04;;;;;;;15.55;9.55;;;10.90;99.90;;;;;;7608556;19;20010;-74
2022/11/10 08:53:55;;;;;;;8.35;4.78;;;11.00;99.90;;;;;;7611709;19;20010;-74
2022/11/10 08:56:45;;;;;;;9.45;4.93;;;11.10;99.90;;;;;;7600255;19;20038;-74
2022/11/10 08:59:36;;;;;;;9.25;3.92;;;11.20;99.90;;;;;;7590605;19;20021;-74
2022/11/10 09:02:27;;;;;;;12.40;5.40;;;11.30;99.90;;;;;;7613595;19;20010;-74
2022/11/10 09:05:18;;;;;;;11.20;3.65;;;11.30;99.90;;;;;;7595916;19;20019;-74
2022/11/10 09:08:09;;;;;;;7.47;3.35;;;11.30;99.90;;;;;;7603988;19;20010;-74
2022/11/10 09:11:03;;;;;;;8.07;3.72;;;11.30;99.90;;;;;;7603770;19;20498;-74
2022/11/10 09:13:53;;;;;;;5.20;3.55;;;11.40;99.90;;;;;;7604971;19;20142;-74
2022/11/10 09:16:44;;;;;;;5.10;3.05;;;11.40;99.90;;;;;;7601059;19;20041;-74
2022/11/10 09:19:34;;;;;;;8.88;3.60;;;11.50;99.90;;;;;;7590911;19;20043;-75
2022/11/10 09:22:26;;;;;;;6.95;3.67;;;11.60;99.90;;;;;;7599048;19;20017;-74
2022/11/10 09:25:16;;;;;;;6.60;3.28;;;11.80;99.90;;;;;;7597692;19;20045;-74
2022/11/10 09:28:12;;;;;;;9.52;2.92;;;11.80;99.90;;;;;;7597339;19;20029;-74
2022/11/10 09:31:02;;;;;;;8.82;3.05;;;11.90;99.90;;;;;;7600280;19;20019;-74
2022/11/10 09:33:53;;;;;;;7.60;2.80;;;12.10;99.90;;;;;;7606448;19;20503;-74
2022/11/10 09:36:44;;;;;;;5.57;2.00;;;12.20;99.90;;;;;;7600707;19;21173;-74
2022/11/10 09:39:34;;;;;;;8.13;2.13;;;12.30;99.90;;;;;;7578918;19;20474;-74
2022/11/10 09:42:38;;;;;;;12.77;2.28;;;12.40;99.90;;;;;;7599591;19;20010;-74
2022/11/10 09:45:32;;;;;;;7.18;2.15;;;12.30;99.90;;;;;;7599855;19;20988;-74
2022/11/10 09:48:31;;;;;;;4.20;2.10;;;12.30;99.90;;;;;;7609265;19;20011;-74
2022/11/10 09:51:29;;;;;;;4.93;2.13;;;12.50;99.90;;;;;;7608198;19;20018;-75
2022/11/10 09:54:42;;;;;;;5.28;1.80;;;12.50;99.90;;;;;;7612416;19;20014;-75
2022/11/10 09:57:33;;;;;;;6.32;2.00;;;12.50;99.90;;;;;;7600538;19;20042;-75
2022/11/10 10:00:24;;;;;;;5.80;2.22;;;12.60;99.90;;;;;;7607079;19;20054;-73
2022/11/10 10:03:23;;;;;;;5.03;1.60;;;12.70;99.90;;;;;;7607249;19;20783;-75
2022/11/10 10:06:15;;;;;;;7.63;1.92;;;12.90;99.90;;;;;;7609936;19;20022;-75
2022/11/10 10:09:23;;;;;;;7.93;1.95;;;13.10;99.90;;;;;;7601721;19;20027;-74
2022/11/10 10:12:13;;;;;;;4.03;1.75;;;13.10;99.90;;;;;;7595542;19;20037;-74
2022/11/10 10:15:27;;;;;;;7.03;2.10;;;13.10;99.90;;;;;;7608999;19;20025;-75
2022/11/10 10:18:31;;;;;;;8.90;1.95;;;13.10;99.90;;;;;;7594214;19;20533;-75
2022/11/10 10:21:24;;;;;;;3.55;1.88;;;13.30;99.90;;;;;;7591754;19;20022;-74
2022/11/10 10:24:18;;;;;;;5.43;1.50;;;13.40;99.90;;;;;;7591791;19;20548;-75
2022/11/10 10:27:20;;;;;;;4.70;1.58;;;13.60;99.90;;;;;;7601771;19;20026;-75
2022/11/10 10:30:15;;;;;;;5.63;1.85;;;13.70;99.90;;;;;;7603505;19;20868;-75
2022/11/10 10:33:18;;;;;;;8.13;2.08;;;13.70;99.90;;;;;;7604363;19;20490;-75
2022/11/10 10:36:22;;;;;;;5.68;1.90;;;13.80;99.90;;;;;;7603330;19;20647;-75
2022/11/10 10:39:29;;;;;;;7.90;1.85;;;13.90;99.90;;;;;;7608090;19;20011;-74
2022/11/10 10:42:34;;;;;;;5.95;2.00;;;13.70;99.90;;;;;;7608521;19;20877;-75
2022/11/10 10:45:28;;;;;;;4.72;1.63;;;13.40;99.90;;;;;;7607600;19;20011;-75
2022/11/10 10:48:27;;;;;;;8.38;2.13;;;13.10;99.90;;;;;;7608185;19;20010;-73
2022/11/10 10:51:29;;;;;;;6.53;2.20;;;13.10;99.90;;;;;;7602930;19;20675;-74
2022/11/10 10:54:24;;;;;;;7.15;2.15;;;13.10;99.90;;;;;;7594629;19;20015;-74
2022/11/10 10:57:27;;;;;;;8.27;1.95;;;13.00;99.90;;;;;;7599225;19;20793;-74
2022/11/10 11:00:22;;;;;;;6.18;1.88;;;13.10;99.90;;;;;;7594085;19;20014;-74
2022/11/10 11:03:43;;;;;;;4.68;1.90;;;13.00;99.90;;;;;;7607757;19;20406;-74
2022/11/10 11:06:34;;;;;;;5.50;1.85;;;13.10;99.90;;;;;;7611265;19;21206;-75
2022/11/10 11:09:39;;;;;;;6.03;2.13;;;13.20;99.90;;;;;;7595934;19;20510;-75
2022/11/10 11:12:32;;;;;;;6.63;1.52;;;13.50;99.90;;;;;;7616862;19;20394;-75
2022/11/10 11:15:29;;;;;;;7.55;1.58;;;13.70;99.90;;;;;;7602186;19;20511;-75
2022/11/10 11:18:25;;;;;;;4.15;1.48;;;13.90;99.90;;;;;;7603137;19;20018;-75
2022/11/10 11:21:36;;;;;;;6.50;1.63;;;14.10;99.90;;;;;;7600227;19;20493;-74
2022/11/10 11:24:50;;;;;;;4.15;1.70;;;14.10;96.20;;;;;;7604060;19;20007;-75
2022/11/10 11:28:16;;;;;;;7.18;2.20;;;15.30;95.70;;;;;;7604115;19;20026;-75
2022/11/10 11:31:23;;;;;;;9.52;2.03;;;20.30;77.40;;;;;;7614750;19;20010;-75
2022/11/10 11:34:42;;;;;;;4.97;1.98;;;19.50;68.70;;;;;;7605417;19;20014;-75
2022/11/10 11:37:59;;;;;;;5.95;2.30;;;17.40;77.50;;;;;;7601857;19;20022;-75
2022/11/10 11:41:11;;;;;;;11.70;2.17;;;15.90;84.60;;;;;;7613528;19;20030;-75
2022/11/10 11:44:15;;;;;;;6.63;2.30;;;14.90;89.00;;;;;;7611832;19;20029;-75
2022/11/10 11:47:18;;;;;;;4.80;1.80;;;14.40;90.80;;;;;;7611123;19;20014;-75
2022/11/10 11:50:35;;;;;;;4.40;1.40;;;14.90;87.70;;;;;;7596155;19;20015;-74
2022/11/10 11:53:44;;;;;;;2.95;1.48;;;14.10;90.50;;;;;;7603349;19;20019;-74
2022/11/10 11:56:40;;;;;;;9.82;1.83;;;13.80;92.10;;;;;;7614040;19;20057;-74
2022/11/10 11:59:47;;;;;;;5.18;1.80;;;14.50;91.60;;;;;;7611594;19;20014;-74
2022/11/10 12:02:47;;;;;;;6.35;2.15;;;16.10;89.60;;;;;;7619984;19;20015;-74
2022/11/10 12:05:48;;;;;;;;;;;16.40;86.80;;;;;;7604110;19;20021;-74
2022/11/10 12:09:15;;;;;;;3.85;1.45;;;17.90;78.50;;;;;;7607556;19;20429;-74
2022/11/10 12:12:17;;;;;;;5.40;1.60;;;16.30;83.00;;;;;;7611206;19;20018;-74
2022/11/10 12:15:29;;;;;;;3.65;1.60;;;14.90;87.50;;;;;;7607036;19;20115;-74
2022/11/10 12:18:32;;;;;;;7.28;1.17;;;14.40;89.50;;;;;;7598259;19;20014;-74
2022/11/10 12:21:47;;;;;;;5.70;1.95;;;14.70;90.20;;;;;;7613112;19;20105;-73
2022/11/10 12:24:49;;;;;;;8.60;1.50;;;15.00;89.70;;;;;;7596978;19;20126;-75
2022/11/10 12:27:44;;;;;;;5.22;2.25;;;15.90;84.30;;;;;;7601238;19;20914;-74
2022/11/10 12:30:38;;;;;;;6.25;2.17;;;14.80;82.80;;;;;;7613106;19;20017;-74
2022/11/10 12:33:44;;;;;;;4.55;2.10;;;14.40;86.90;;;;;;7589100;19;20813;-74
2022/11/10 12:36:36;;;;;;;6.00;2.00;;;14.50;90.20;;;;;;7599026;19;20085;-74
2022/11/10 12:39:50;;;;;;;5.53;2.65;;;14.60;90.60;;;;;;7588970;19;20029;-74
2022/11/10 12:42:44;;;;;;;6.75;2.00;;;17.50;85.20;;;;;;7586937;19;20015;-74
2022/11/10 12:45:58;;;;;;;5.80;1.50;;;18.30;70.00;;;;;;7611849;19;20013;-75
2022/11/10 12:49:01;;;;;;;5.90;1.55;;;17.50;72.70;;;;;;7599120;19;20022;-74
2022/11/10 12:52:34;;;;;;;8.13;1.90;;;17.10;74.20;;;;;;7589431;19;20015;-75
2022/11/10 12:55:35;;;;;;;5.15;1.30;;;17.30;72.00;;;;;;7599862;19;20010;-75
2022/11/10 12:58:26;;;;;;;7.18;2.50;;;18.10;69.90;;;;;;7602294;19;20022;-75
2022/11/10 13:01:19;;;;;;;6.00;2.83;;;19.10;68.50;;;;;;7607171;19;20033;-74
2022/11/10 13:04:13;;;;;;;8.00;1.77;;;21.40;63.00;;;;;;7594020;19;20731;-75
2022/11/10 13:07:05;;;;;;;6.40;2.10;;;20.30;63.40;;;;;;7598374;19;20466;-74
2022/11/10 13:10:24;;;;;;;4.80;1.63;;;19.40;63.40;;;;;;7601194;19;20028;-74
2022/11/10 13:13:15;;;;;;;4.07;1.40;;;18.50;65.80;;;;;;7610094;19;20014;-74
2022/11/10 13:16:08;;;;;;;4.40;1.80;;;17.70;70.20;;;;;;7608529;19;20596;-73
2022/11/10 13:18:58;;;;;;;4.03;1.75;;;16.40;72.20;;;;;;7608548;19;20748;-74
2022/11/10 13:21:52;;;;;;;4.07;1.30;;;15.70;76.60;;;;;;7612441;19;20364;-74
2022/11/10 13:24:43;;;;;;;4.83;1.67;;;15.30;78.50;;;;;;7591254;19;20019;-74
2022/11/10 13:27:37;;;;;;;2.83;1.05;;;14.90;79.10;;;;;;7610099;19;20263;-74
2022/11/10 13:30:44;;;;;;;3.13;1.15;;;14.70;80.00;;;;;;7608642;19;20045;-74
2022/11/10 13:33:36;;;;;;;4.93;1.38;;;14.40;80.40;;;;;;7601166;19;20015;-74
2022/11/10 13:36:38;;;;;;;7.32;1.40;;;14.20;81.40;;;;;;7587101;19;20018;-75
2022/11/10 13:39:32;;;;;;;6.32;1.38;;;14.20;80.50;;;;;;7572290;19;20018;-74
2022/11/10 13:42:23;;;;;;;6.55;2.08;;;14.00;82.80;;;;;;7563012;19;20014;-74
2022/11/10 13:45:31;;;;;;;4.53;1.90;;;14.70;81.30;;;;;;7588212;19;20628;-74
2022/11/10 13:48:41;;;;;;;5.65;2.22;;;16.30;77.10;;;;;;7574875;19;20034;-74
2022/11/10 13:51:44;;;;;;;4.22;1.52;;;20.60;69.00;;;;;;7583711;19;20014;-74
2022/11/10 13:55:06;;;;;;;1.80;1.15;;;19.50;66.30;;;;;;7567789;19;20564;-74
2022/11/10 13:58:07;;;;;;;6.75;1.50;;;17.80;66.60;;;;;;7610878;19;20019;-74
2022/11/10 14:01:16;;;;;;;5.60;1.67;;;16.60;72.20;;;;;;7614966;19;20010;-75
2022/11/10 14:04:06;;;;;;;4.63;1.30;;;16.90;76.60;;;;;;7587016;19;20058;-74
2022/11/10 14:06:58;;;;;;;3.10;2.08;;;17.50;75.50;;;;;;7594674;19;21265;-75
2022/11/10 14:09:53;;;;;;;4.82;1.70;;;20.50;66.60;;;;;;7573539;19;20728;-74
2022/11/10 14:12:56;;;;;;;5.53;1.88;;;23.40;59.90;;;;;;7595305;19;20026;-74
2022/11/10 14:15:48;;;;;;;9.45;2.30;;;25.20;53.40;;;;;;7604038;19;20006;-74
2022/11/10 14:18:44;;;;;;;5.32;2.08;;;26.50;51.10;;;;;;7579426;19;21683;-75
2022/11/10 14:21:45;;;;;;;4.78;1.88;;;26.50;50.70;;;;;;7587549;19;20026;-74
2022/11/10 14:25:04;;;;;;;5.22;2.10;;;26.10;48.80;;;;;;7567658;19;20671;-75
2022/11/10 14:27:55;;;;;;;4.18;1.40;;;26.10;48.70;;;;;;7552638;19;20022;-73
2022/11/10 14:30:52;;;;;;;5.75;1.65;;;25.30;49.80;;;;;;7568372;19;20035;-72
2022/11/10 14:33:52;;;;;;;4.22;1.52;;;24.30;54.10;;;;;;7596253;19;20484;-74
2022/11/10 14:36:58;;;;;;;4.30;1.52;;;23.20;54.50;;;;;;7610571;19;20018;-72
2022/11/10 14:39:52;;;;;;;7.85;1.65;;;22.70;56.60;;;;;;7590522;19;20018;-72
2022/11/10 14:42:43;;;;;;;;;;;22.70;56.90;;;;;;7566011;19;20006;-71
2022/11/10 14:45:37;;;;;;;4.35;1.73;;;22.60;58.00;;;;;;7564660;19;20014;-71
2022/11/10 14:48:30;;;;;;;1.83;1.35;;;22.50;57.00;;;;;;7570232;19;20010;-72
2022/11/10 14:51:21;;;;;;;2.42;1.52;;;22.70;57.20;;;;;;7581580;19;20347;-72
2022/11/10 14:54:22;;;;;;;4.25;1.10;;;22.40;57.10;;;;;;7585150;19;20011;-72
2022/11/10 14:57:17;;;;;;;7.03;1.15;;;20.70;60.00;;;;;;7594749;19;20006;-72
2022/11/10 15:00:16;;;;;;;5.25;1.30;;;18.50;66.70;;;;;;7567503;19;20098;-71
2022/11/10 15:03:09;;;;;;;4.97;1.45;;;17.20;72.00;;;;;;7600464;19;20014;-71
2022/11/10 15:06:01;;;;;;;4.73;1.37;;;16.10;75.10;;;;;;7591469;19;20854;-72
2022/11/10 15:08:52;;;;;;;4.78;1.48;;;15.50;76.20;;;;;;7605964;19;20055;-72
2022/11/10 15:11:52;;;;;;;3.30;1.13;;;15.10;79.10;;;;;;7584028;19;20050;-71
2022/11/10 15:14:45;;;;;;;5.90;1.17;;;14.70;81.50;;;;;;7562909;19;21230;-72
2022/11/10 15:17:45;;;;;;;7.30;1.60;;;14.40;82.40;;;;;;7583870;19;20007;-73
2022/11/10 15:20:40;;;;;;;7.93;1.40;;;14.00;84.20;;;;;;7552284;19;20010;-72
2022/11/10 15:23:35;;;;;;;3.30;1.48;;;13.60;87.10;;;;;;7554577;19;20011;-75
2022/11/10 15:26:31;;;;;;;4.35;1.45;;;13.40;90.30;;;;;;7518924;19;20014;-75
2022/11/10 15:29:23;;;;;;;7.70;2.17;;;13.10;90.80;;;;;;7555442;19;20022;-74
2022/11/10 15:32:16;;;;;;;3.97;1.55;;;12.90;91.20;;;;;;7586483;19;20018;-72
2022/11/10 15:35:27;;;;;;;5.03;1.20;;;12.70;92.30;;;;;;7579765;19;20352;-73
2022/11/10 15:38:17;;;;;;;7.90;1.73;;;12.50;93.80;;;;;;7592534;19;20014;-73